Time;durP1;ratioP1;P1;durP2;ratioP2;P2;SDS_P1;SDS_P2;PMS_P1;PMS_P2;Temp;Humidity;BMP_temperature;BMP_pressure;BME280_temperature;BME280_humidity;BME280_pressure;Samples;Min_cycle;Max_cycle;Signal;HPM_P1;HPM_P2
2022/04/14 00:01:53;;;;;;;0.70;0.70;;;23.00;43.30;;;24.55;35.36;101861.66;5053367;28;20648;-39
2022/04/14 00:04:20;;;;;;;0.60;0.60;;;23.10;43.40;;;24.56;35.71;101863.28;5053237;28;20246;-38
2022/04/14 00:06:48;;;;;;;0.57;0.57;;;23.00;43.30;;;24.56;35.84;101864.09;5040158;28;20215;-39
2022/04/14 00:09:15;;;;;;;0.50;0.50;;;23.00;43.30;;;24.57;35.54;101848.78;5033360;28;20698;-39
2022/04/14 00:11:42;;;;;;;0.60;0.60;;;23.00;43.30;;;24.57;35.51;101848.78;5034363;28;20191;-40
2022/04/14 00:14:10;;;;;;;0.57;0.57;;;23.10;43.50;;;24.56;35.58;101842.56;5033123;28;20567;-39
2022/04/14 00:16:37;;;;;;;0.60;0.60;;;23.00;43.40;;;24.56;35.24;101850.63;5043749;28;20194;-38
2022/04/14 00:19:07;;;;;;;0.60;0.60;;;23.10;43.50;;;24.56;35.25;101855.19;5053013;28;20196;-39
2022/04/14 00:21:35;;;;;;;0.60;0.60;;;23.00;43.50;;;24.56;35.42;101857.91;5053542;28;20220;-38
2022/04/14 00:24:03;;;;;;;0.50;0.50;;;23.10;43.50;;;24.56;35.46;101853.34;5049427;28;20203;-37
2022/04/14 00:26:30;;;;;;;0.60;0.60;;;23.00;43.40;;;24.56;35.56;101858.72;5038419;28;20205;-39
2022/04/14 00:28:57;;;;;;;0.57;0.57;;;23.00;43.50;;;24.57;35.61;101854.16;5039541;28;20205;-38
2022/04/14 00:31:24;;;;;;;0.60;0.60;;;23.00;43.50;;;24.58;35.37;101861.19;5038999;28;20190;-38
2022/04/14 00:33:52;;;;;;;0.60;0.60;;;23.10;43.60;;;24.58;35.21;101869.28;5038830;28;20194;-39
2022/04/14 00:36:20;;;;;;;0.40;0.40;;;23.10;43.60;;;24.56;35.36;101869.50;5053455;28;20204;-38
2022/04/14 00:38:47;;;;;;;0.50;0.50;;;23.10;44.30;;;24.58;35.91;101858.50;5052485;28;20600;-38
2022/04/14 00:41:17;;;;;;;0.50;0.50;;;23.00;43.50;;;24.57;35.28;101856.84;5050974;28;20296;-39
2022/04/14 00:43:44;;;;;;;0.60;0.60;;;23.10;43.70;;;24.57;35.65;101854.16;5052506;28;20190;-40
2022/04/14 00:46:14;;;;;;;0.63;0.63;;;23.00;43.60;;;24.58;35.55;101855.81;5049841;28;20232;-39
2022/04/14 00:48:42;;;;;;;0.53;0.53;;;23.10;43.70;;;24.57;35.84;101854.16;5052314;28;20236;-38
2022/04/14 00:51:09;;;;;;;0.60;0.60;;;23.00;43.60;;;24.57;35.84;101864.94;5052350;28;20191;-38
2022/04/14 00:53:39;;;;;;;0.60;0.60;;;23.00;43.60;;;24.58;35.73;101866.56;5052584;28;20214;-38
2022/04/14 00:56:08;;;;;;;0.50;0.50;;;23.10;43.80;;;24.57;35.80;101854.97;5036507;28;20204;-38
2022/04/14 00:58:35;;;;;;;0.63;0.63;;;23.10;43.70;;;24.58;35.63;101861.19;5035545;28;20713;-37
2022/04/14 01:01:07;;;;;;;0.50;0.50;;;23.10;43.70;;;24.58;35.71;101869.28;5051875;28;20212;-38
2022/04/14 01:03:35;;;;;;;0.37;0.37;;;23.10;43.70;;;24.57;35.75;101862.25;5050504;28;20193;-38
2022/04/14 01:06:04;;;;;;;0.50;0.50;;;23.10;43.70;;;24.59;35.82;101860.13;5050487;28;20187;-38
2022/04/14 01:08:32;;;;;;;0.43;0.43;;;23.10;43.70;;;24.57;35.55;101846.06;5051098;28;20221;-38
2022/04/14 01:11:02;;;;;;;0.70;0.70;;;23.10;43.80;;;24.57;35.64;101854.16;5051695;28;20337;-38
2022/04/14 01:13:29;;;;;;;0.50;0.50;;;23.10;43.80;;;24.58;35.50;101847.72;5052026;28;20190;-39
2022/04/14 01:15:58;;;;;;;0.40;0.40;;;23.10;43.80;;;24.56;35.84;101841.75;5036692;28;20578;-38
2022/04/14 01:18:26;;;;;;;0.50;0.50;;;23.10;43.70;;;24.56;35.66;101836.34;5031603;28;20575;-38
2022/04/14 01:20:54;;;;;;;0.30;0.30;;;23.10;43.80;;;24.58;35.80;101839.66;5032991;28;20289;-37
2022/04/14 01:23:40;;;;;;;0.40;0.40;;;23.10;43.80;;;24.55;35.75;101845.50;5031738;28;20198;-38
2022/04/14 01:26:09;;;;;;;0.40;0.40;;;23.10;43.80;;;24.60;35.54;101837.53;5033498;28;20203;-38
2022/04/14 01:28:36;;;;;;;0.50;0.50;;;23.10;43.80;;;24.60;35.70;101842.91;5051745;28;20221;-38
2022/04/14 01:31:03;;;;;;;0.40;0.40;;;23.10;43.70;;;24.59;35.53;101830.50;5051599;28;20194;-39
2022/04/14 01:33:31;;;;;;;0.57;0.57;;;23.10;43.80;;;24.59;35.40;101835.88;5051813;28;20588;-39
2022/04/14 01:35:58;;;;;;;0.40;0.40;;;23.10;43.80;;;24.59;35.67;101830.50;5032378;28;20345;-39
2022/04/14 01:38:25;;;;;;;0.60;0.60;;;23.10;43.80;;;24.59;36.00;101830.50;5037020;28;20709;-39
2022/04/14 01:40:54;;;;;;;0.50;0.50;;;23.10;43.80;;;24.57;35.72;101819.16;5051649;28;20556;-39
2022/04/14 01:43:21;;;;;;;0.60;0.60;;;23.10;43.80;;;24.58;35.98;101828.88;5051931;28;20194;-38
2022/04/14 01:45:51;;;;;;;0.50;0.50;;;23.10;43.80;;;24.59;36.13;101825.09;5035232;28;20667;-38
2022/04/14 01:48:18;;;;;;;0.37;0.37;;;23.10;43.80;;;24.60;35.62;101827.59;5031592;28;20691;-38
2022/04/14 01:50:45;;;;;;;0.50;0.50;;;23.10;43.80;;;24.60;36.11;101827.59;5031681;28;20187;-38
2022/04/14 01:53:13;;;;;;;0.40;0.40;;;23.10;43.80;;;24.59;36.06;101830.50;5032902;28;20201;-39
2022/04/14 01:55:40;;;;;;;0.37;0.37;;;23.10;43.80;;;24.61;35.76;101825.69;5033193;28;20198;-38
2022/04/14 01:58:09;;;;;;;0.40;0.40;;;23.10;43.90;;;24.60;35.57;101826.75;5031254;28;20206;-38
2022/04/14 02:00:36;;;;;;;0.40;0.40;;;23.10;43.90;;;24.60;35.43;101824.06;5031597;28;20273;-37
2022/04/14 02:03:03;;;;;;;0.40;0.40;;;23.10;43.90;;;24.59;35.71;101825.09;5031577;28;20297;-38
2022/04/14 02:05:31;;;;;;;0.37;0.37;;;23.10;43.90;;;24.59;35.60;101827.81;5044278;28;20666;-38
2022/04/14 02:07:58;;;;;;;0.50;0.50;;;23.10;43.90;;;24.58;35.64;101824.28;5049041;28;20210;-39
2022/04/14 02:10:26;;;;;;;0.50;0.50;;;23.10;43.90;;;24.60;36.04;101832.16;5051388;28;20200;-38
2022/04/14 02:12:53;;;;;;;0.50;0.50;;;23.10;43.90;;;24.60;35.53;101827.59;5049382;28;20288;-37
2022/04/14 02:15:22;;;;;;;0.50;0.50;;;23.10;43.90;;;24.60;35.58;101832.16;5040361;28;20198;-38
2022/04/14 02:17:49;;;;;;;0.40;0.40;;;23.10;43.90;;;24.61;35.84;101836.47;5038439;28;20219;-38
2022/04/14 02:20:17;;;;;;;0.40;0.40;;;23.10;43.90;;;24.59;35.68;101835.88;5032091;28;20245;-37
2022/04/14 02:22:44;;;;;;;0.87;0.50;;;23.10;43.80;;;24.61;35.84;101836.47;5036120;28;20236;-38
2022/04/14 02:25:11;;;;;;;0.40;0.40;;;23.10;43.90;;;24.60;35.85;101834.84;5036984;28;20193;-40
2022/04/14 02:27:38;;;;;;;0.40;0.40;;;23.10;43.90;;;24.60;35.68;101834.84;5035716;28;20217;-37
2022/04/14 02:30:07;;;;;;;0.33;0.33;;;23.10;43.90;;;24.60;35.71;101827.59;5037821;28;20198;-39
2022/04/14 02:32:36;;;;;;;0.50;0.50;;;23.10;43.90;;;24.62;35.87;101836.22;5047914;28;20551;-39
2022/04/14 02:35:04;;;;;;;0.47;0.47;;;23.10;43.90;;;24.61;36.00;101839.16;5046502;28;20195;-39
2022/04/14 02:37:32;;;;;;;0.40;0.40;;;23.10;43.90;;;24.62;35.95;101846.19;5034865;28;20206;-40
2022/04/14 02:39:59;;;;;;;0.30;0.30;;;23.10;43.90;;;24.62;35.74;101838.94;5035303;28;20190;-40
2022/04/14 02:42:26;;;;;;;0.40;0.40;;;23.10;43.90;;;24.61;35.61;101833.75;5036695;28;20562;-39
2022/04/14 02:44:53;;;;;;;0.40;0.40;;;23.10;43.90;;;24.62;35.74;101843.50;5035129;28;20195;-39
2022/04/14 02:47:21;;;;;;;0.43;0.43;;;23.10;43.90;;;24.61;35.71;101833.75;5034514;28;20210;-40
2022/04/14 02:49:50;;;;;;;0.50;0.50;;;23.10;43.90;;;24.60;35.87;101837.53;5036202;28;20281;-39
2022/04/14 02:52:17;;;;;;;0.50;0.50;;;23.10;43.90;;;24.60;36.07;101838.34;5035048;28;20198;-40
2022/04/14 02:54:44;;;;;;;0.50;0.50;;;23.10;43.90;;;24.61;36.16;101831.06;5041689;28;20206;-40
2022/04/14 02:57:11;;;;;;;0.40;0.40;;;23.10;43.90;;;24.62;35.59;101835.41;5054516;28;20212;-40
2022/04/14 02:59:39;;;;;;;0.50;0.50;;;23.10;43.90;;;24.62;35.62;101830.03;5054043;28;20801;-40
2022/04/14 03:02:06;;;;;;;0.43;0.43;;;23.10;43.90;;;24.61;36.20;101828.38;5054650;28;20617;-40
2022/04/14 03:04:33;;;;;;;0.50;0.50;;;23.10;43.90;;;24.62;35.57;101830.03;5050331;28;20570;-40
2022/04/14 03:07:02;;;;;;;0.57;0.57;;;23.10;44.00;;;24.63;36.02;101834.34;5035352;28;20237;-39
2022/04/14 03:09:29;;;;;;;0.50;0.50;;;23.10;44.60;;;24.63;35.70;101827.06;5034523;28;20278;-39
2022/04/14 03:11:57;;;;;;;0.40;0.40;;;23.10;44.00;;;24.62;35.75;101830.84;5034410;28;20186;-39
2022/04/14 03:14:24;;;;;;;0.40;0.40;;;23.10;44.00;;;24.63;35.89;101828.94;5034671;28;20210;-40
2022/04/14 03:16:51;;;;;;;0.50;0.50;;;23.10;44.00;;;24.62;36.13;101830.03;5033991;28;20559;-40
2022/04/14 03:19:18;;;;;;;0.47;0.47;;;23.10;43.90;;;24.63;35.58;101831.63;5035345;28;20197;-40
2022/04/14 03:21:46;;;;;;;0.40;0.40;;;23.10;43.90;;;24.62;36.23;101819.25;5034154;28;20214;-40
2022/04/14 03:24:15;;;;;;;0.23;0.23;;;23.10;43.90;;;24.62;35.49;101821.94;5038563;28;20198;-41
2022/04/14 03:26:42;;;;;;;0.40;0.40;;;23.10;44.00;;;24.62;36.17;101819.25;5033859;28;20722;-39
2022/04/14 03:29:10;;;;;;;0.40;0.40;;;23.10;43.90;;;24.61;35.84;101823.81;5034079;28;20217;-39
2022/04/14 03:31:37;;;;;;;0.60;0.60;;;23.10;44.00;;;24.63;35.56;101821.69;5033955;28;20551;-37
2022/04/14 03:34:04;;;;;;;0.50;0.50;;;23.10;44.00;;;24.64;35.51;101814.44;5039040;28;20668;-37
2022/04/14 03:36:31;;;;;;;0.40;0.40;;;23.10;44.00;;;24.65;35.60;101816.88;5052071;28;20205;-37
2022/04/14 03:38:59;;;;;;;0.40;0.40;;;23.10;44.00;;;24.63;35.77;101821.69;5053939;28;20197;-38
2022/04/14 03:41:27;;;;;;;0.50;0.50;;;23.10;44.00;;;24.63;35.91;101816.31;5046924;28;20199;-39
2022/04/14 03:43:55;;;;;;;0.50;0.50;;;23.10;44.00;;;24.65;35.56;101816.09;5037888;28;20190;-38
2022/04/14 03:46:22;;;;;;;0.37;0.37;;;23.10;44.00;;;24.63;35.98;101813.63;5054081;28;20194;-38
2022/04/14 03:48:50;;;;;;;0.40;0.40;;;23.10;44.00;;;24.65;36.03;101810.69;5058338;28;20288;-38
2022/04/14 03:51:17;;;;;;;0.40;0.40;;;23.10;44.00;;;24.63;35.75;101810.09;5060077;28;20197;-39
2022/04/14 03:53:44;;;;;;;0.40;0.40;;;23.10;44.00;;;24.64;36.16;101823.34;5059580;28;20200;-38
2022/04/14 03:56:12;;;;;;;0.40;0.40;;;23.10;44.00;;;24.63;35.95;101815.47;5058811;28;20192;-39
2022/04/14 03:58:40;;;;;;;0.40;0.40;;;23.10;44.00;;;24.66;35.84;101815.00;5056277;28;20218;-39
2022/04/14 04:01:08;;;;;;;0.50;0.50;;;23.10;44.00;;;24.65;35.95;101808.00;5058537;28;20685;-37
2022/04/14 04:03:35;;;;;;;0.30;0.30;;;23.10;44.00;;;24.66;36.14;101801.53;5055391;28;20256;-38
2022/04/14 04:06:02;;;;;;;0.40;0.40;;;23.10;44.00;;;24.63;35.86;101804.72;5034228;28;20194;-40
2022/04/14 04:08:30;;;;;;;0.50;0.50;;;23.10;44.00;;;24.62;35.98;101809.31;5033254;28;20210;-39
2022/04/14 04:10:58;;;;;;;0.40;0.40;;;23.10;44.00;;;24.63;35.75;101810.91;5034455;28;20199;-40
2022/04/14 04:13:25;;;;;;;0.40;0.40;;;23.10;44.00;;;24.65;35.79;101808.00;5033604;28;20190;-39
2022/04/14 04:15:54;;;;;;;0.33;0.33;;;23.10;44.00;;;24.63;35.91;101810.09;5034327;28;20221;-38
2022/04/14 04:18:21;;;;;;;0.40;0.40;;;23.10;44.00;;;24.64;35.93;101806.34;5032867;28;20218;-39
2022/04/14 04:20:48;;;;;;;0.40;0.40;;;23.10;44.00;;;24.64;36.01;101811.75;5033200;28;20191;-39
2022/04/14 04:23:16;;;;;;;0.40;0.40;;;23.10;44.10;;;24.66;35.68;101825.78;5032934;28;20218;-39
2022/04/14 04:25:43;;;;;;;0.40;0.40;;;23.10;44.00;;;24.65;36.15;101811.50;5052796;28;20681;-39
2022/04/14 04:28:10;;;;;;;0.40;0.40;;;23.10;44.00;;;24.66;36.35;101818.53;5056916;28;20277;-40
2022/04/14 04:30:37;;;;;;;0.40;0.40;;;23.10;44.10;;;24.65;35.78;101819.56;5033208;28;20219;-39
2022/04/14 04:33:06;;;;;;;0.40;0.40;;;23.10;44.10;;;24.66;35.83;101825.78;5033185;28;20182;-41
2022/04/14 04:35:34;;;;;;;0.50;0.50;;;23.10;44.10;;;24.65;35.99;101826.84;5033119;28;20681;-39
2022/04/14 04:38:01;;;;;;;0.37;0.37;;;23.10;44.10;;;24.65;36.12;101829.56;5032458;28;20225;-39
2022/04/14 04:40:28;;;;;;;0.40;0.40;;;23.10;44.10;;;24.66;36.15;101833.88;5032629;28;20647;-38
2022/04/14 04:42:55;;;;;;;0.40;0.40;;;23.10;44.10;;;24.66;35.86;101840.06;5032575;28;20207;-39
2022/04/14 04:45:23;;;;;;;0.40;0.40;;;23.10;44.00;;;24.68;36.19;101831.75;5046651;28;20189;-40
2022/04/14 04:47:50;;;;;;;0.33;0.33;;;23.10;44.10;;;24.66;35.73;101841.94;5052347;28;20214;-39
2022/04/14 04:50:19;;;;;;;0.40;0.40;;;23.10;44.10;;;24.67;35.85;101848.97;5052646;28;20205;-38
2022/04/14 04:52:46;;;;;;;0.50;0.50;;;23.10;44.10;;;24.65;35.97;101846.50;5050907;28;20190;-38
2022/04/14 04:55:14;;;;;;;0.40;0.40;;;23.10;44.10;;;24.66;35.90;101847.31;5037435;28;20194;-38
2022/04/14 04:57:41;;;;;;;0.60;0.60;;;23.10;44.10;;;24.66;35.87;101852.72;5051569;28;20213;-39
2022/04/14 05:00:11;;;;;;;0.40;0.40;;;23.10;44.10;;;24.66;35.66;101844.63;5052570;28;20552;-38
2022/04/14 05:02:38;;;;;;;0.40;0.40;;;23.10;44.10;;;24.66;35.63;101833.88;5050596;28;20195;-38
2022/04/14 05:05:07;;;;;;;0.30;0.30;;;23.10;44.10;;;24.66;36.29;101839.25;5032482;28;20195;-38
2022/04/14 05:07:35;;;;;;;0.40;0.40;;;23.10;44.10;;;24.67;35.50;101840.91;5031973;28;20224;-38
2022/04/14 05:10:04;;;;;;;0.30;0.30;;;23.10;44.10;;;24.67;36.03;101840.91;5043169;28;20194;-39
2022/04/14 05:12:31;;;;;;;0.50;0.50;;;23.10;44.10;;;24.67;36.03;101839.03;5052167;28;20194;-39
2022/04/14 05:14:58;;;;;;;0.47;0.47;;;23.10;44.10;;;24.68;36.08;101845.22;5034821;28;20202;-39
2022/04/14 05:17:25;;;;;;;0.40;0.40;;;23.10;44.10;;;24.68;36.19;101855.97;5031800;28;20578;-39
2022/04/14 05:19:53;;;;;;;0.50;0.50;;;23.10;44.10;;;24.68;35.79;101855.97;5032271;28;20679;-39
2022/04/14 05:22:20;;;;;;;0.40;0.40;;;23.10;44.10;;;24.69;35.96;101857.63;5051576;28;20216;-40
2022/04/14 05:24:48;;;;;;;0.40;0.40;;;23.10;44.10;;;24.68;36.30;101855.97;5048665;28;20193;-38
2022/04/14 05:27:16;;;;;;;0.40;0.40;;;23.10;44.20;;;24.68;36.01;101864.88;5049977;28;20214;-41
2022/04/14 05:29:43;;;;;;;0.40;0.40;;;23.10;44.10;;;24.68;35.90;101862.19;5052416;28;20208;-39
2022/04/14 05:32:10;;;;;;;0.47;0.47;;;23.10;44.10;;;24.68;35.83;101867.56;5052636;28;20655;-39
2022/04/14 05:34:37;;;;;;;0.53;0.53;;;23.20;44.20;;;24.67;35.81;101863.28;5051766;28;20194;-38
2022/04/14 05:37:05;;;;;;;0.43;0.43;;;23.10;44.10;;;24.67;35.95;101865.97;5051762;28;20210;-39
2022/04/14 05:39:32;;;;;;;0.37;0.37;;;23.10;44.10;;;24.67;36.19;101871.34;5050228;28;20197;-40
2022/04/14 05:42:01;;;;;;;0.50;0.50;;;23.10;44.10;;;24.68;35.77;101875.66;5051622;28;20196;-40
2022/04/14 05:44:28;;;;;;;0.40;0.40;;;23.20;44.20;;;24.68;35.80;101867.56;5040419;28;20553;-38
2022/04/14 05:46:55;;;;;;;0.40;0.40;;;23.10;44.10;;;24.69;36.16;101871.09;5036372;28;20212;-39
2022/04/14 05:49:23;;;;;;;0.50;0.50;;;23.20;44.20;;;24.70;36.33;101875.41;5051754;28;20186;-38
2022/04/14 05:51:50;;;;;;;0.30;0.30;;;23.20;44.20;;;24.68;35.57;101883.75;5051617;28;20281;-39
2022/04/14 05:54:17;;;;;;;0.50;0.50;;;23.20;44.20;;;24.69;35.57;101884.56;5039103;28;20217;-39
2022/04/14 05:56:45;;;;;;;0.50;0.50;;;23.10;44.10;;;24.68;35.61;101880.22;5050569;28;20202;-39
2022/04/14 05:59:16;;;;;;;0.50;0.50;;;23.10;44.10;;;24.68;35.99;101888.31;5055618;28;20233;-40
2022/04/14 06:01:44;;;;;;;0.40;0.40;;;23.20;44.20;;;24.68;35.93;101880.22;5053837;28;20228;-39
2022/04/14 06:04:12;;;;;;;0.40;0.40;;;23.20;44.20;;;24.68;35.88;101886.44;5043847;28;20218;-39
2022/04/14 06:06:40;;;;;;;0.40;0.40;;;23.10;44.10;;;24.68;35.81;101889.13;5035509;28;20190;-39
2022/04/14 06:09:07;;;;;;;0.57;0.57;;;23.20;44.20;;;24.70;35.92;101886.19;5035658;28;20197;-40
2022/04/14 06:11:35;;;;;;;0.57;0.57;;;23.20;44.20;;;24.68;35.99;101893.69;5035625;28;20190;-38
2022/04/14 06:14:02;;;;;;;0.40;0.40;;;23.20;44.20;;;24.69;36.33;101892.63;5048370;28;20273;-39
2022/04/14 06:16:31;;;;;;;0.50;0.50;;;23.20;44.20;;;24.69;36.10;101881.88;5056399;28;20190;-39
2022/04/14 06:18:59;;;;;;;0.57;0.57;;;23.20;44.20;;;24.69;36.12;101885.38;5055108;28;20189;-40
2022/04/14 06:21:26;;;;;;;0.50;0.50;;;23.20;44.20;;;24.67;35.95;101876.72;5057402;28;20198;-40
2022/04/14 06:23:53;;;;;;;0.50;0.50;;;23.20;44.20;;;24.67;35.76;101884.00;5045804;28;20233;-39
2022/04/14 06:26:21;;;;;;;0.40;0.40;;;23.10;44.20;;;24.69;35.64;101885.38;5036353;28;20341;-40
2022/04/14 06:28:48;;;;;;;0.40;0.40;;;23.20;44.20;;;24.69;36.35;101889.94;5036536;28;20222;-37
2022/04/14 06:31:15;;;;;;;0.50;0.50;;;23.20;44.20;;;24.70;35.84;101892.38;5037080;28;20663;-40
2022/04/14 06:33:44;;;;;;;0.40;0.40;;;23.10;44.20;;;24.68;35.72;101893.69;5044420;28;20251;-38
2022/04/14 06:36:12;;;;;;;0.40;0.40;;;23.20;44.20;;;24.67;35.73;101892.06;5054487;28;20194;-39
2022/04/14 06:38:39;;;;;;;0.30;0.30;;;23.10;44.10;;;24.68;36.42;101893.69;5035117;28;20202;-37
2022/04/14 06:41:06;;;;;;;0.40;0.40;;;23.20;44.20;;;24.67;35.78;101898.28;5035296;28;20685;-39
2022/04/14 06:43:34;;;;;;;0.40;0.40;;;23.20;44.20;;;24.68;35.91;101899.06;5042653;28;20209;-38
2022/04/14 06:46:03;;;;;;;0.40;0.40;;;23.20;44.20;;;24.70;35.88;101896.94;5054651;28;20194;-38
2022/04/14 06:48:31;;;;;;;0.40;0.40;;;23.20;44.20;;;24.70;36.20;101903.16;5055010;28;20224;-38
2022/04/14 06:51:00;;;;;;;0.50;0.50;;;23.20;44.20;;;24.70;35.96;101908.56;5054980;28;20268;-39
2022/04/14 06:53:27;;;;;;;0.60;0.60;;;23.20;44.20;;;24.68;36.01;101902.59;5054253;28;20194;-40
2022/04/14 06:55:55;;;;;;;0.70;0.70;;;23.20;44.20;;;24.71;35.80;101904.00;5037489;28;20197;-38
2022/04/14 06:58:22;;;;;;;0.60;0.60;;;23.20;44.20;;;24.71;36.29;101901.28;5035724;28;20293;-37
2022/04/14 07:00:49;;;;;;;0.40;0.40;;;23.20;44.20;;;24.71;36.19;101902.13;5035342;28;20189;-38
2022/04/14 07:03:21;;;;;;;0.43;0.43;;;23.20;44.90;;;24.71;36.33;101904.00;5035839;28;20337;-38
2022/04/14 07:05:48;;;;;;;0.50;0.50;;;23.20;44.30;;;24.72;36.34;101911.03;5034998;28;20190;-38
2022/04/14 07:08:17;;;;;;;0.50;0.50;;;23.20;44.30;;;24.72;35.92;101908.34;5033347;28;20218;-38
2022/04/14 07:10:44;;;;;;;0.63;0.63;;;23.20;44.30;;;24.73;35.67;101907.25;5034668;28;20206;-40
2022/04/14 07:13:12;;;;;;;0.70;0.70;;;23.20;44.30;;;24.73;36.25;101907.25;5039952;28;20193;-39
2022/04/14 07:15:39;;;;;;;0.60;0.60;;;23.20;44.90;;;24.75;35.94;101905.13;5054403;28;20518;-39
2022/04/14 07:18:07;;;;;;;0.80;0.80;;;23.20;44.30;;;24.75;36.07;101910.53;5054155;28;20210;-38
2022/04/14 07:20:34;;;;;;;0.70;0.70;;;23.20;44.30;;;24.75;36.04;101911.34;5039028;28;20201;-39
2022/04/14 07:23:03;;;;;;;0.70;0.70;;;23.20;44.30;;;24.75;35.90;101910.53;5034707;28;21034;-38
2022/04/14 07:25:35;;;;;;;1.10;1.00;;;23.20;44.30;;;24.74;35.86;101906.22;5033173;28;20191;-39
2022/04/14 07:28:03;;;;;;;0.80;0.80;;;23.20;44.30;;;24.75;35.73;101915.91;5033866;28;20206;-38
2022/04/14 07:30:31;;;;;;;1.70;1.60;;;23.20;44.20;;;24.76;36.14;101914.88;5039961;28;20697;-39
2022/04/14 07:33:00;;;;;;;1.63;1.50;;;23.20;44.30;;;24.76;36.32;101907.66;5044127;28;20206;-38
2022/04/14 07:35:28;;;;;;;1.03;0.90;;;23.20;44.40;;;24.77;35.85;101913.84;5038278;28;20205;-39
2022/04/14 07:37:55;;;;;;;1.73;1.63;;;23.20;44.40;;;24.79;36.46;101900.97;5037723;28;20217;-39
2022/04/14 07:40:24;;;;;;;1.10;1.00;;;23.20;44.40;;;24.78;36.23;101910.91;5035078;28;20232;-40
2022/04/14 07:42:57;;;;;;;1.43;1.33;;;23.20;44.40;;;24.77;35.89;101903.88;5037434;28;20210;-39
2022/04/14 07:45:25;;;;;;;1.50;1.40;;;23.30;44.50;;;24.76;35.79;101907.66;5044177;28;20212;-38
2022/04/14 07:47:52;;;;;;;4.10;2.30;;;23.20;44.30;;;24.75;36.42;101910.53;5033085;28;20229;-38
2022/04/14 07:50:21;;;;;;;3.33;2.10;;;23.30;44.40;;;24.76;36.38;101917.56;5032773;28;20244;-38
2022/04/14 07:52:51;;;;;;;2.43;1.40;;;23.30;44.40;;;24.74;36.27;101914.28;5033031;28;20202;-41
2022/04/14 07:55:24;;;;;;;3.03;1.27;;;23.20;44.30;;;24.75;36.14;101915.91;5039968;28;20546;-37
2022/04/14 07:57:55;;;;;;;1.90;1.60;;;23.20;44.30;;;24.75;35.95;101913.22;5055694;28;20218;-41
2022/04/14 08:00:24;;;;;;;1.03;1.00;;;23.30;44.40;;;24.75;36.24;101916.75;5037180;28;20202;-40
2022/04/14 08:02:55;;;;;;;2.10;1.10;;;23.20;44.30;;;24.74;36.01;101917.00;5041310;28;20263;-41
2022/04/14 08:05:27;;;;;;;1.77;1.67;;;23.30;44.40;;;24.73;36.66;101918.84;5058065;28;20288;-37
2022/04/14 08:07:55;;;;;;;3.30;1.43;;;23.30;44.50;;;24.74;35.81;101914.28;5058719;28;20217;-38
2022/04/14 08:10:23;;;;;;;1.33;1.23;;;23.30;44.50;;;24.74;36.19;101922.38;5052431;28;20671;-37
2022/04/14 08:12:53;;;;;;;2.27;2.07;;;23.30;44.50;;;24.72;36.23;101922.59;5039515;28;20197;-40
2022/04/14 08:15:21;;;;;;;1.70;1.60;;;23.30;44.50;;;24.73;36.49;101918.03;5035965;28;20332;-45
2022/04/14 08:17:49;;;;;;;3.10;1.73;;;23.20;44.50;;;24.73;36.01;101918.03;5037679;28;20650;-39
2022/04/14 08:20:18;;;;;;;4.00;1.33;;;23.20;44.50;;;24.72;36.79;101922.59;5047098;28;20203;-40
2022/04/14 08:22:51;;;;;;;2.97;1.43;;;23.30;44.70;;;24.73;36.26;101923.41;5042473;28;20217;-38
2022/04/14 08:25:21;;;;;;;4.93;2.00;;;23.20;44.70;;;24.72;36.86;101927.19;5060705;28;20531;-41
2022/04/14 08:27:49;;;;;;;2.83;2.43;;;23.30;44.80;;;24.71;36.62;101928.22;5054801;28;20244;-39
2022/04/14 08:30:21;;;;;;;3.87;2.20;;;23.30;44.80;;;24.71;36.80;101925.53;5065200;28;20197;-40
2022/04/14 08:32:50;;;;;;;1.80;1.60;;;23.30;44.90;;;24.71;36.46;101925.53;5058745;28;20228;-39
2022/04/14 08:35:20;;;;;;;2.53;1.17;;;23.30;44.90;;;24.70;36.51;101919.31;5035180;28;20190;-40
2022/04/14 08:37:49;;;;;;;3.63;2.40;;;23.30;44.90;;;24.72;36.60;101927.19;5046657;28;20250;-38
2022/04/14 08:40:23;;;;;;;2.77;1.97;;;23.30;44.90;;;24.71;36.80;101928.22;5048197;28;20684;-39
2022/04/14 08:42:56;;;;;;;3.13;2.50;;;23.30;45.00;;;24.71;36.91;101925.53;5041160;28;20199;-38
2022/04/14 08:45:31;;;;;;;4.43;2.50;;;23.30;45.00;;;24.69;37.13;101933.88;5054358;28;20190;-38
2022/04/14 08:48:00;;;;;;;4.33;2.60;;;23.30;45.10;;;24.69;36.72;101928.47;5058333;28;20210;-38
2022/04/14 08:50:29;;;;;;;4.60;2.63;;;23.30;45.10;;;24.70;36.54;101929.28;5056094;28;20212;-39
2022/04/14 08:52:57;;;;;;;3.77;3.47;;;23.30;45.20;;;24.68;37.01;101926.00;5056540;28;20696;-40
2022/04/14 08:55:26;;;;;;;5.70;3.17;;;23.30;45.20;;;24.67;37.10;101929.78;5059639;28;20197;-39
2022/04/14 08:57:56;;;;;;;4.30;2.57;;;23.30;45.30;;;24.68;37.19;101928.69;5055227;28;20218;-39
2022/04/14 09:00:23;;;;;;;3.30;3.10;;;23.30;45.30;;;24.67;37.04;101925.22;5052072;28;20276;-39
2022/04/14 09:02:54;;;;;;;6.37;3.37;;;23.30;45.40;;;24.69;36.79;101928.47;5053574;28;20209;-39
2022/04/14 09:05:21;;;;;;;5.43;3.00;;;23.30;45.40;;;24.69;36.94;101922.28;5052498;28;20728;-39
2022/04/14 09:07:50;;;;;;;4.17;2.90;;;23.30;45.40;;;24.68;37.20;101917.94;5053959;28;20225;-42
2022/04/14 09:10:19;;;;;;;3.80;2.10;;;23.30;45.40;;;24.69;36.96;101922.28;5054406;28;20238;-41
2022/04/14 09:12:48;;;;;;;3.50;1.60;;;23.30;45.40;;;24.71;37.17;101923.66;5050775;28;20201;-39
2022/04/14 09:15:17;;;;;;;2.37;2.17;;;23.30;45.40;;;24.71;37.41;101920.97;5048973;28;20202;-39
2022/04/14 09:17:45;;;;;;;2.47;2.07;;;23.30;45.40;;;24.70;36.99;101919.31;5053115;28;20250;-40
2022/04/14 09:20:36;;;;;;;2.20;2.00;;;23.30;45.40;;;24.67;37.46;101921.69;5049999;28;20209;-38
2022/04/14 09:23:15;;;;;;;4.33;3.17;;;23.30;45.50;;;24.69;36.85;101916.88;5044529;28;20259;-37
2022/04/14 09:25:44;;;;;;;4.53;2.50;;;23.40;45.50;;;24.69;37.02;101915.00;5041562;28;20194;-39
2022/04/14 09:28:13;;;;;;;3.60;3.13;;;23.30;45.50;;;24.71;37.33;101912.06;5029415;28;20355;-39
2022/04/14 09:30:57;;;;;;;4.73;3.63;;;23.30;46.10;;;24.67;37.16;101916.31;5044336;28;20197;-38
2022/04/14 09:33:25;;;;;;;2.33;2.13;;;23.30;45.60;;;24.68;37.32;101915.22;5043342;28;20205;-38
2022/04/14 09:36:13;;;;;;;3.50;2.60;;;23.30;45.50;;;24.67;37.40;101911.75;5044330;28;20304;-40
2022/04/14 09:38:53;;;;;;;3.43;2.77;;;23.40;45.70;;;24.67;37.41;101913.63;5045725;28;20312;-38
2022/04/14 09:41:32;;;;;;;3.57;3.27;;;23.40;45.60;;;24.67;37.49;101908.22;5052074;28;20638;-39
2022/04/14 09:44:04;;;;;;;2.80;2.03;;;23.40;45.60;;;24.69;37.64;101912.31;5049357;28;20220;-39
2022/04/14 09:46:32;;;;;;;4.30;2.57;;;23.40;45.60;;;24.70;37.04;101913.13;5040569;28;20205;-40
2022/04/14 09:49:09;;;;;;;5.57;2.00;;;23.40;45.60;;;24.68;36.89;101904.47;5041226;28;20197;-40
2022/04/14 09:51:39;;;;;;;2.43;1.50;;;23.40;45.70;;;24.69;37.16;101906.09;5039254;28;20193;-39
2022/04/14 09:54:17;;;;;;;3.20;2.50;;;23.40;45.70;;;24.69;37.03;101906.09;5035274;28;20245;-40
2022/04/14 09:56:49;;;;;;;3.37;1.90;;;23.40;45.60;;;24.70;37.39;101908.56;5039854;28;20689;-39
2022/04/14 09:59:19;;;;;;;4.20;2.73;;;23.40;45.60;;;24.71;37.61;101904.81;5033775;28;20205;-40
2022/04/14 10:01:48;;;;;;;6.53;2.57;;;23.40;45.60;;;24.73;37.62;101899.19;5034704;28;20201;-40
2022/04/14 10:04:32;;;;;;;2.47;2.07;;;23.40;45.60;;;24.69;37.25;101903.41;5047417;28;20322;-39
2022/04/14 10:07:08;;;;;;;4.30;2.30;;;23.40;45.70;;;24.72;37.07;101905.63;5050481;28;20210;-41
2022/04/14 10:09:41;;;;;;;4.50;3.10;;;23.40;45.60;;;24.72;37.71;101894.88;5049476;28;20201;-39
2022/04/14 10:12:30;;;;;;;5.33;3.23;;;23.40;45.50;;;24.69;37.10;101900.72;5049964;28;20289;-44
2022/04/14 10:15:13;;;;;;;5.30;2.73;;;23.40;45.50;;;24.70;37.54;101897.78;5043951;28;21046;-39
2022/04/14 10:17:42;;;;;;;6.13;2.80;;;23.40;45.50;;;24.71;37.14;101893.22;5055242;28;20222;-41
2022/04/14 10:20:14;;;;;;;5.27;2.23;;;23.40;45.40;;;24.73;37.41;101894.63;5049738;28;20301;-41